createdAt,value
2023-04-05T00:01:37.591Z,40.98
2023-04-05T00:04:05.153Z,41.23
2023-04-05T00:06:32.108Z,41.03
2023-04-05T00:09:03.901Z,41.25
2023-04-05T00:11:32.701Z,41.49
2023-04-05T00:14:00.179Z,41.42
2023-04-05T00:16:27.822Z,41.10
2023-04-05T00:18:55.777Z,41.58
2023-04-05T00:21:23.645Z,41.85
2023-04-05T00:23:51.638Z,41.74
2023-04-05T00:26:19.140Z,42.01
2023-04-05T00:28:46.757Z,42.05
2023-04-05T00:31:13.662Z,42.32
2023-04-05T00:33:40.867Z,42.53
2023-04-05T00:36:18.708Z,42.31
2023-04-05T00:38:46.743Z,42.72
2023-04-05T00:41:14.363Z,42.46
2023-04-05T00:43:41.444Z,42.57
2023-04-05T00:46:08.754Z,42.66
2023-04-05T00:48:35.898Z,42.80
2023-04-05T00:51:02.812Z,43.02
2023-04-05T00:53:29.482Z,43.12
2023-04-05T00:55:56.306Z,43.64
2023-04-05T00:58:23.851Z,44.20
2023-04-05T01:01:13.749Z,44.28
2023-04-05T01:03:45.106Z,44.31
2023-04-05T01:06:17.954Z,44.08
2023-04-05T01:08:52.472Z,43.98
2023-04-05T01:11:19.250Z,43.57
2023-04-05T01:13:46.826Z,43.91
2023-04-05T01:16:15.606Z,44.40
2023-04-05T01:18:46.570Z,44.61
2023-04-05T01:21:46.084Z,44.67
2023-04-05T01:24:46.851Z,44.79
2023-04-05T01:27:32.039Z,44.23
2023-04-05T01:30:07.889Z,44.33
2023-04-05T01:32:52.782Z,44.77
2023-04-05T01:35:38.702Z,45.77
2023-04-05T01:38:07.825Z,46.32
2023-04-05T01:40:36.826Z,46.32
2023-04-05T01:43:03.691Z,46.13
2023-04-05T01:45:31.346Z,46.78
2023-04-05T01:47:58.096Z,45.92
2023-04-05T01:50:24.620Z,46.02
2023-04-05T01:52:51.166Z,45.87
2023-04-05T01:55:17.845Z,45.44
2023-04-05T01:57:44.333Z,45.73
2023-04-05T02:00:12.148Z,45.74
2023-04-05T02:02:38.792Z,45.60
2023-04-05T02:05:05.720Z,45.82
2023-04-05T02:07:32.233Z,46.68
2023-04-05T02:09:58.737Z,46.33
2023-04-05T02:12:25.596Z,47.21
2023-04-05T02:14:52.655Z,47.15
2023-04-05T02:17:19.214Z,47.40
2023-04-05T02:19:46.911Z,47.05
2023-04-05T02:22:13.951Z,46.39
2023-04-05T02:24:41.312Z,46.95
2023-04-05T02:27:08.009Z,46.58
2023-04-05T02:29:34.855Z,46.40
2023-04-05T02:32:01.830Z,46.59
2023-04-05T02:34:28.508Z,46.41
2023-04-05T02:36:55.367Z,46.61
2023-04-05T02:39:21.913Z,46.46
2023-04-05T02:41:48.578Z,46.53
2023-04-05T02:44:15.123Z,46.79
2023-04-05T02:46:41.975Z,46.56
2023-04-05T02:49:08.437Z,46.14
2023-04-05T02:51:35.253Z,46.24
2023-04-05T02:54:03.139Z,46.37
2023-04-05T02:56:30.163Z,46.06
2023-04-05T02:58:56.669Z,46.01
2023-04-05T03:01:23.888Z,45.99
2023-04-05T03:03:50.965Z,45.97
2023-04-05T03:06:18.184Z,46.74
2023-04-05T03:08:46.111Z,46.40
2023-04-05T03:11:12.948Z,46.40
2023-04-05T03:13:39.437Z,46.67
2023-04-05T03:16:06.314Z,46.60
2023-04-05T03:18:32.871Z,46.62
2023-04-05T03:20:59.427Z,47.54
2023-04-05T03:23:28.613Z,47.21
2023-04-05T03:26:01.398Z,47.00
2023-04-05T03:28:28.402Z,46.92
2023-04-05T03:30:55.197Z,47.23
2023-04-05T03:33:22.206Z,47.19
2023-04-05T03:35:48.816Z,47.22
2023-04-05T03:38:16.312Z,47.18
2023-04-05T03:40:44.595Z,47.76
2023-04-05T03:43:11.426Z,47.40
2023-04-05T03:45:38.175Z,47.51
2023-04-05T03:48:05.830Z,48.20
2023-04-05T03:50:32.403Z,47.71
2023-04-05T03:52:59.267Z,48.07
2023-04-05T03:55:26.804Z,48.61
2023-04-05T03:57:54.074Z,48.58
2023-04-05T04:00:20.832Z,48.34
2023-04-05T04:02:48.498Z,48.21
2023-04-05T04:05:16.544Z,47.92
2023-04-05T04:07:44.297Z,48.34
2023-04-05T04:10:12.613Z,48.47
2023-04-05T04:12:39.447Z,48.99
2023-04-05T04:15:06.615Z,48.64
2023-04-05T04:17:35.112Z,48.64
2023-04-05T04:20:01.949Z,48.25
2023-04-05T04:22:33.149Z,48.34
2023-04-05T04:25:02.676Z,48.28
2023-04-05T04:27:30.442Z,48.10
2023-04-05T04:30:01.947Z,48.32
2023-04-05T04:32:47.727Z,48.38
2023-04-05T04:35:18.451Z,48.12
2023-04-05T04:37:53.141Z,48.35
2023-04-05T04:40:19.587Z,48.78
2023-04-05T04:42:48.905Z,48.45
2023-04-05T04:45:17.296Z,48.40
2023-04-05T04:47:48.866Z,48.83
2023-04-05T04:50:16.579Z,48.43
2023-04-05T04:52:43.108Z,48.28
2023-04-05T04:55:10.255Z,49.00
2023-04-05T04:57:36.794Z,48.75
2023-04-05T05:00:12.114Z,48.11
2023-04-05T05:02:39.263Z,48.86
2023-04-05T05:05:07.544Z,48.25
2023-04-05T05:07:34.721Z,48.77
2023-04-05T05:10:01.795Z,48.67
2023-04-05T05:12:29.892Z,48.80
2023-04-05T05:14:56.691Z,48.41
2023-04-05T05:17:23.963Z,48.27
2023-04-05T05:19:51.407Z,48.27
2023-04-05T05:22:18.598Z,47.99
2023-04-05T05:24:45.636Z,48.09
2023-04-05T05:27:12.360Z,48.06
2023-04-05T05:29:38.849Z,47.76
2023-04-05T05:32:05.328Z,47.77
2023-04-05T05:34:32.759Z,47.56
2023-04-05T05:36:59.320Z,47.60
2023-04-05T05:39:25.872Z,47.13
2023-04-05T05:41:52.856Z,47.35
2023-04-05T05:44:19.379Z,47.09
2023-04-05T05:46:46.034Z,47.25
2023-04-05T05:49:12.926Z,47.81
2023-04-05T05:51:41.590Z,47.74
2023-04-05T05:54:08.202Z,47.67
2023-04-05T05:56:34.876Z,47.38
2023-04-05T05:59:01.909Z,47.25
2023-04-05T06:01:28.578Z,47.12
2023-04-05T06:03:55.868Z,46.75
2023-04-05T06:06:23.038Z,46.79
2023-04-05T06:08:49.601Z,46.86
2023-04-05T06:11:20.114Z,46.38
2023-04-05T06:13:47.734Z,46.61
2023-04-05T06:16:14.454Z,45.79
2023-04-05T06:18:41.818Z,46.36
2023-04-05T06:21:08.405Z,46.46
2023-04-05T06:23:35.009Z,46.26
2023-04-05T06:26:01.705Z,45.82
2023-04-05T06:28:29.195Z,45.57
2023-04-05T06:30:57.959Z,45.22
2023-04-05T06:33:24.981Z,45.14
2023-04-05T06:35:51.681Z,44.73
2023-04-05T06:38:18.786Z,44.15
2023-04-05T06:40:45.305Z,44.13
2023-04-05T06:43:12.828Z,43.55
2023-04-05T06:45:39.373Z,43.74
2023-04-05T06:48:06.627Z,42.84
2023-04-05T06:50:33.287Z,42.59
2023-04-05T06:53:00.076Z,42.43
2023-04-05T06:55:26.790Z,42.22
2023-04-05T06:57:53.269Z,42.42
2023-04-05T07:00:20.820Z,41.86
2023-04-05T07:02:47.430Z,41.30
2023-04-05T07:05:14.209Z,41.05
2023-04-05T07:07:44.332Z,41.18
2023-04-05T07:10:11.460Z,41.18
2023-04-05T07:12:38.928Z,41.17
2023-04-05T07:15:06.330Z,41.30
2023-04-05T07:17:32.863Z,40.49
2023-04-05T07:19:59.445Z,40.13
2023-04-05T07:22:25.939Z,39.49
2023-04-05T07:24:53.395Z,39.30
2023-04-05T07:27:20.124Z,39.07
2023-04-05T07:29:48.364Z,39.14
2023-04-05T07:32:15.050Z,40.03
2023-04-05T07:34:42.151Z,38.88
2023-04-05T07:37:08.770Z,39.20
2023-04-05T07:39:35.763Z,39.65
2023-04-05T07:42:02.534Z,39.31
2023-04-05T07:44:29.149Z,39.89
2023-04-05T07:46:55.780Z,39.59
2023-04-05T07:49:27.224Z,38.59
2023-04-05T07:51:55.712Z,37.94
2023-04-05T07:54:22.236Z,37.56
2023-04-05T07:56:52.421Z,38.18
2023-04-05T07:59:19.014Z,37.83
2023-04-05T08:01:45.742Z,37.08
2023-04-05T08:04:12.560Z,37.16
2023-04-05T08:06:39.309Z,37.76
2023-04-05T08:09:06.367Z,37.15
2023-04-05T08:11:33.338Z,36.28
2023-04-05T08:14:00.284Z,34.74
2023-04-05T08:16:27.878Z,36.05
2023-04-05T08:18:54.446Z,35.53
2023-04-05T08:21:23.172Z,36.08
2023-04-05T08:23:50.411Z,37.02
2023-04-05T08:26:17.295Z,36.82
2023-04-05T08:28:43.824Z,36.39
2023-04-05T08:31:13.418Z,36.42
2023-04-05T08:33:40.393Z,36.55
2023-04-05T08:36:08.201Z,35.96
2023-04-05T08:38:34.974Z,34.03
2023-04-05T08:41:18.642Z,32.46
2023-04-05T08:43:46.253Z,34.62
2023-04-05T08:46:16.832Z,33.94
2023-04-05T08:48:43.739Z,33.28
2023-04-05T08:51:10.473Z,33.52
2023-04-05T08:53:37.124Z,32.66
2023-04-05T08:56:04.338Z,31.82
2023-04-05T08:58:31.854Z,31.94
2023-04-05T09:00:59.112Z,32.15
2023-04-05T09:03:28.614Z,31.12
2023-04-05T09:05:58.911Z,30.34
2023-04-05T09:08:25.536Z,28.84
2023-04-05T09:10:52.526Z,27.33
2023-04-05T09:13:19.515Z,26.69
2023-04-05T09:15:46.780Z,25.75
2023-04-05T09:18:25.490Z,26.34
2023-04-05T09:21:06.361Z,26.93
2023-04-05T09:23:39.972Z,25.76
2023-04-05T09:26:22.880Z,26.15
2023-04-05T09:28:49.670Z,25.40
2023-04-05T09:31:48.822Z,23.72
2023-04-05T09:34:21.935Z,23.16
2023-04-05T09:36:48.569Z,22.80
2023-04-05T09:39:20.544Z,20.47
2023-04-05T09:42:04.995Z,15.49
2023-04-05T09:44:52.775Z,11.49
2023-04-05T09:47:20.779Z,8.78
2023-04-05T09:49:47.494Z,6.74
2023-04-05T09:52:23.187Z,6.20
2023-04-05T09:54:52.238Z,6.91
2023-04-05T09:57:19.064Z,6.31
2023-04-05T09:59:47.198Z,6.68
2023-04-05T10:02:13.875Z,9.71
2023-04-05T10:04:41.958Z,9.50
2023-04-05T10:07:13.871Z,7.09
2023-04-05T10:09:42.004Z,7.10
2023-04-05T10:12:09.946Z,8.04
2023-04-05T10:14:37.389Z,6.33
2023-04-05T10:17:10.496Z,5.36
2023-04-05T10:19:40.222Z,4.50
2023-04-05T10:22:13.968Z,5.44
2023-04-05T10:24:46.572Z,5.87
2023-04-05T10:27:30.447Z,5.49
2023-04-05T10:30:04.737Z,5.32
2023-04-05T10:33:03.108Z,6.42
2023-04-05T10:36:08.434Z,5.44
2023-04-05T10:38:46.017Z,4.18
2023-04-05T10:41:16.774Z,3.80
2023-04-05T10:43:44.219Z,4.28
2023-04-05T10:46:11.841Z,3.59
2023-04-05T10:48:49.911Z,4.26
2023-04-05T10:51:16.844Z,3.73
2023-04-05T10:53:43.996Z,3.75
2023-04-05T10:56:11.586Z,3.79
2023-04-05T10:58:39.731Z,4.38
2023-04-05T11:01:07.851Z,4.55
2023-04-05T11:03:51.629Z,4.86
2023-04-05T11:06:19.891Z,5.21
2023-04-05T11:08:48.726Z,4.17
2023-04-05T11:11:17.656Z,4.07
2023-04-05T11:13:56.980Z,3.89
2023-04-05T11:16:25.074Z,3.16
2023-04-05T11:18:52.807Z,3.60
2023-04-05T11:21:26.291Z,4.06
2023-04-05T11:24:00.054Z,3.93
2023-04-05T11:26:48.412Z,4.72
2023-04-05T11:29:15.748Z,4.01
2023-04-05T11:32:01.683Z,3.32
2023-04-05T11:34:28.250Z,2.82
2023-04-05T11:36:54.883Z,3.39
2023-04-05T11:39:21.614Z,3.00
2023-04-05T11:41:48.094Z,3.93
2023-04-05T11:44:16.257Z,4.10
2023-04-05T11:46:43.444Z,4.59
2023-04-05T11:49:10.129Z,5.53
2023-04-05T11:51:36.848Z,6.00
2023-04-05T11:54:03.550Z,5.33
2023-04-05T11:56:30.104Z,5.17
2023-04-05T11:59:00.238Z,5.94
2023-04-05T12:01:27.282Z,6.67
2023-04-05T12:03:57.864Z,6.73
2023-04-05T12:06:26.174Z,5.43
2023-04-05T12:08:56.181Z,5.14
2023-04-05T12:11:27.926Z,5.92
2023-04-05T12:13:56.648Z,4.74
2023-04-05T12:16:23.221Z,4.82
2023-04-05T12:18:58.632Z,4.94
2023-04-05T12:21:26.388Z,6.88
2023-04-05T12:23:53.526Z,10.53
2023-04-05T12:26:21.243Z,12.02
2023-04-05T12:28:58.533Z,16.33
2023-04-05T12:31:44.776Z,17.18
2023-04-05T12:34:12.593Z,19.13
2023-04-05T12:36:39.714Z,19.30
2023-04-05T12:39:09.079Z,19.43
2023-04-05T12:41:37.442Z,19.89
2023-04-05T12:44:17.329Z,20.44
2023-04-05T12:46:45.340Z,21.42
2023-04-05T12:49:12.767Z,20.98
2023-04-05T12:51:46.983Z,21.15
2023-04-05T12:54:21.533Z,21.06
2023-04-05T12:56:53.085Z,21.78
2023-04-05T12:59:20.370Z,20.72
2023-04-05T13:01:47.160Z,20.80
2023-04-05T13:04:16.715Z,20.31
2023-04-05T13:06:46.600Z,20.71
2023-04-05T13:09:13.233Z,20.44
2023-04-05T13:11:39.927Z,20.17
2023-04-05T13:14:06.531Z,19.07
2023-04-05T13:16:33.036Z,18.22
2023-04-05T13:18:59.633Z,18.56
2023-04-05T13:21:26.174Z,16.85
2023-04-05T13:23:52.703Z,16.78
2023-04-05T13:26:19.245Z,18.73
2023-04-05T13:28:46.103Z,19.06
2023-04-05T13:31:14.449Z,18.60
2023-04-05T13:33:42.414Z,18.38
2023-04-05T13:36:10.884Z,19.73
2023-04-05T13:38:37.884Z,20.04
2023-04-05T13:41:04.596Z,19.80
2023-04-05T13:43:31.491Z,20.13
2023-04-05T13:45:58.363Z,19.05
2023-04-05T13:48:25.080Z,18.25
2023-04-05T13:50:51.946Z,18.96
2023-04-05T13:53:18.416Z,18.89
2023-04-05T13:55:45.124Z,19.52
2023-04-05T13:58:14.398Z,18.32
2023-04-05T14:00:44.032Z,18.25
2023-04-05T14:03:11.159Z,18.40
2023-04-05T14:05:37.839Z,18.40
2023-04-05T14:08:11.554Z,18.59
2023-04-05T14:10:38.111Z,18.51
2023-04-05T14:13:04.592Z,17.59
2023-04-05T14:15:31.785Z,17.72
2023-04-05T14:17:58.420Z,17.73
2023-04-05T14:20:25.088Z,17.51
2023-04-05T14:22:51.763Z,18.22
2023-04-05T14:25:18.629Z,17.52
2023-04-05T14:27:48.093Z,17.38
2023-04-05T14:30:14.973Z,17.09
2023-04-05T14:32:42.038Z,17.65
2023-04-05T14:35:09.211Z,17.46
2023-04-05T14:37:36.033Z,18.47
2023-04-05T14:40:02.859Z,18.04
2023-04-05T14:42:45.163Z,17.43
2023-04-05T14:45:15.487Z,17.99
2023-04-05T14:47:44.243Z,18.38
2023-04-05T14:50:11.269Z,19.04
2023-04-05T14:52:39.877Z,19.59
2023-04-05T14:55:06.714Z,19.97
2023-04-05T14:57:33.339Z,19.91
2023-04-05T14:59:59.857Z,19.84
2023-04-05T15:02:28.054Z,19.33
2023-04-05T15:04:54.736Z,19.21
2023-04-05T15:07:21.800Z,19.00
2023-04-05T15:09:48.920Z,18.80
2023-04-05T15:12:15.665Z,18.97
2023-04-05T15:14:42.303Z,18.56
2023-04-05T15:17:09.127Z,19.21
2023-04-05T15:19:36.103Z,19.27
2023-04-05T15:22:02.954Z,19.06
2023-04-05T15:24:29.839Z,19.36
2023-04-05T15:27:02.443Z,18.83
2023-04-05T15:29:29.898Z,19.43
2023-04-05T15:31:57.928Z,19.28
2023-04-05T15:34:25.306Z,19.64
2023-04-05T15:36:52.874Z,18.94
2023-04-05T15:39:19.507Z,19.33
2023-04-05T15:41:47.154Z,18.40
2023-04-05T15:44:14.377Z,19.58
2023-04-05T15:46:41.285Z,18.81
2023-04-05T15:49:10.239Z,18.94
2023-04-05T15:51:39.298Z,19.01
2023-04-05T15:54:06.106Z,19.34
2023-04-05T15:56:32.709Z,19.18
2023-04-05T15:58:59.923Z,19.08
2023-04-05T16:01:26.820Z,19.11
2023-04-05T16:03:53.870Z,19.45
2023-04-05T16:06:22.101Z,19.07
2023-04-05T16:08:48.970Z,19.33
2023-04-05T16:11:15.678Z,19.32
2023-04-05T16:13:44.865Z,20.40
2023-04-05T16:16:13.794Z,19.91
2023-04-05T16:18:42.608Z,20.80
2023-04-05T16:21:09.527Z,20.61
2023-04-05T16:23:39.851Z,20.59
2023-04-05T16:26:06.562Z,20.20
2023-04-05T16:28:33.363Z,20.48
2023-04-05T16:31:00.216Z,20.60
2023-04-05T16:33:27.146Z,20.63
2023-04-05T16:35:53.969Z,20.14
2023-04-05T16:38:21.313Z,20.94
2023-04-05T16:40:47.953Z,21.16
2023-04-05T16:43:16.223Z,20.50
2023-04-05T16:45:44.213Z,21.32
2023-04-05T16:48:11.126Z,21.16
2023-04-05T16:50:38.599Z,21.43
2023-04-05T16:53:05.178Z,21.14
2023-04-05T16:55:31.774Z,20.70
2023-04-05T16:57:58.544Z,21.05
2023-04-05T17:00:27.357Z,21.70
2023-04-05T17:02:53.950Z,21.28
2023-04-05T17:05:20.944Z,21.67
2023-04-05T17:07:47.807Z,21.48
2023-04-05T17:10:14.346Z,21.22
2023-04-05T17:12:42.327Z,21.15
2023-04-05T17:15:10.536Z,21.43
2023-04-05T17:17:37.383Z,21.55
2023-04-05T17:20:04.490Z,21.60
2023-04-05T17:22:33.924Z,21.63
2023-04-05T17:25:02.620Z,21.59
2023-04-05T17:27:29.191Z,22.40
2023-04-05T17:29:55.938Z,22.18
2023-04-05T17:32:22.510Z,22.51
2023-04-05T17:34:49.181Z,23.08
2023-04-05T17:37:15.818Z,23.31
2023-04-05T17:39:42.385Z,23.24
2023-04-05T17:42:09.323Z,23.51
2023-04-05T17:44:36.260Z,23.84
2023-04-05T17:47:09.135Z,24.03
2023-04-05T17:49:38.457Z,24.24
2023-04-05T17:52:05.880Z,24.57
2023-04-05T17:54:37.028Z,24.65
2023-04-05T17:57:07.134Z,25.13
2023-04-05T17:59:35.180Z,25.08
2023-04-05T18:02:01.841Z,25.37
2023-04-05T18:04:28.790Z,26.11
2023-04-05T18:06:55.468Z,26.10
2023-04-05T18:09:22.023Z,26.21
2023-04-05T18:11:50.114Z,26.48
2023-04-05T18:14:16.659Z,26.53
2023-04-05T18:16:43.195Z,26.45
2023-04-05T18:19:09.730Z,26.99
2023-04-05T18:21:36.454Z,26.82
2023-04-05T18:24:03.199Z,27.34
2023-04-05T18:26:30.298Z,27.32
2023-04-05T18:29:00.437Z,27.59
2023-04-05T18:31:28.259Z,27.21
2023-04-05T18:33:55.010Z,27.36
2023-04-05T18:36:25.477Z,27.46
2023-04-05T18:38:57.599Z,27.59
2023-04-05T18:41:24.393Z,28.14
2023-04-05T18:43:54.635Z,27.88
2023-04-05T18:46:22.487Z,28.29
2023-04-05T18:48:57.680Z,28.68
2023-04-05T18:51:24.735Z,29.19
2023-04-05T18:53:51.435Z,29.31
2023-04-05T18:56:18.135Z,29.50
2023-04-05T18:58:48.248Z,29.80
2023-04-05T19:01:16.094Z,29.75
2023-04-05T19:03:44.044Z,29.73
2023-04-05T19:06:12.203Z,29.89
2023-04-05T19:08:39.512Z,29.47
2023-04-05T19:11:06.902Z,30.35
2023-04-05T19:13:34.067Z,30.22
2023-04-05T19:16:00.906Z,30.03
2023-04-05T19:18:29.865Z,29.97
2023-04-05T19:20:58.904Z,30.04
2023-04-05T19:23:26.767Z,30.20
2023-04-05T19:25:57.819Z,29.72
2023-04-05T19:28:25.958Z,30.28
2023-04-05T19:30:55.130Z,30.23
2023-04-05T19:33:22.065Z,30.86
2023-04-05T19:35:49.166Z,32.57
2023-04-05T19:38:16.181Z,32.25
2023-04-05T19:40:42.931Z,32.72
2023-04-05T19:43:10.343Z,32.72
2023-04-05T19:45:37.173Z,32.98
2023-04-05T19:48:27.731Z,32.99
2023-04-05T19:50:57.592Z,34.12
2023-04-05T19:53:38.975Z,33.85
2023-04-05T19:56:12.674Z,33.92
2023-04-05T19:58:40.463Z,33.85
2023-04-05T20:01:08.175Z,33.72
2023-04-05T20:03:38.611Z,33.98
2023-04-05T20:06:07.280Z,34.00
2023-04-05T20:08:45.806Z,34.32
2023-04-05T20:11:14.514Z,34.36
2023-04-05T20:13:43.766Z,34.16
2023-04-05T20:16:12.196Z,34.05
2023-04-05T20:18:39.855Z,33.56
2023-04-05T20:21:06.993Z,33.18
2023-04-05T20:23:36.133Z,33.74
2023-04-05T20:26:06.332Z,34.25
2023-04-05T20:28:55.272Z,34.34
2023-04-05T20:31:23.252Z,34.18
2023-04-05T20:33:53.156Z,34.52
2023-04-05T20:36:37.288Z,34.94
2023-04-05T20:39:06.315Z,35.12
2023-04-05T20:41:33.118Z,34.95
2023-04-05T20:44:00.378Z,34.88
2023-04-05T20:46:28.346Z,35.13
2023-04-05T20:48:57.273Z,35.13
2023-04-05T20:51:24.038Z,35.28
2023-04-05T20:53:51.688Z,35.37
2023-04-05T20:56:18.490Z,35.59
2023-04-05T20:58:45.088Z,35.91
2023-04-05T21:01:12.077Z,36.14
2023-04-05T21:03:40.748Z,36.35
2023-04-05T21:06:08.681Z,36.40
2023-04-05T21:08:36.611Z,36.65
2023-04-05T21:11:03.325Z,36.48
2023-04-05T21:13:31.955Z,36.75
2023-04-05T21:15:58.917Z,37.05
2023-04-05T21:18:26.120Z,36.99
2023-04-05T21:20:53.858Z,37.26
2023-04-05T21:23:22.730Z,37.38
2023-04-05T21:25:50.341Z,37.58
2023-04-05T21:28:17.062Z,37.77
2023-04-05T21:30:44.261Z,37.78
2023-04-05T21:33:11.851Z,38.06
2023-04-05T21:35:38.782Z,38.08
2023-04-05T21:38:05.757Z,38.09
2023-04-05T21:40:32.967Z,38.22
2023-04-05T21:43:00.007Z,38.47
2023-04-05T21:45:26.970Z,38.56
2023-04-05T21:47:54.309Z,38.53
2023-04-05T21:50:21.193Z,38.54
2023-04-05T21:52:49.721Z,38.96
2023-04-05T21:55:16.301Z,38.32
2023-04-05T21:57:43.265Z,38.15
2023-04-05T22:00:13.178Z,38.00
2023-04-05T22:02:39.921Z,38.35
2023-04-05T22:05:08.157Z,37.90
2023-04-05T22:07:35.569Z,38.25
2023-04-05T22:10:02.950Z,39.63
2023-04-05T22:12:29.902Z,40.05
2023-04-05T22:14:56.725Z,39.89
2023-04-05T22:17:23.357Z,39.82
2023-04-05T22:19:52.384Z,40.04
2023-04-05T22:22:19.165Z,39.83
2023-04-05T22:24:45.771Z,39.84
2023-04-05T22:27:12.396Z,39.59
2023-04-05T22:29:39.331Z,39.64
2023-04-05T22:32:06.468Z,39.56
2023-04-05T22:34:33.197Z,39.52
2023-04-05T22:37:00.536Z,39.59
2023-04-05T22:39:27.877Z,39.72
2023-04-05T22:41:54.996Z,39.96
2023-04-05T22:44:22.050Z,40.23
2023-04-05T22:46:48.712Z,40.41
2023-04-05T22:49:16.403Z,40.64
2023-04-05T22:51:42.908Z,41.05
2023-04-05T22:54:09.486Z,41.09
2023-04-05T22:56:36.416Z,41.36
2023-04-05T22:59:03.077Z,41.08
2023-04-05T23:01:29.672Z,41.93
2023-04-05T23:03:56.485Z,42.35
2023-04-05T23:06:23.047Z,42.43
2023-04-05T23:08:49.557Z,42.41
2023-04-05T23:11:16.489Z,42.23
2023-04-05T23:13:43.001Z,42.57
2023-04-05T23:16:10.117Z,42.29
2023-04-05T23:18:36.694Z,42.78
2023-04-05T23:21:03.381Z,43.42
2023-04-05T23:23:29.928Z,43.89
2023-04-05T23:25:56.770Z,44.55
2023-04-05T23:28:23.293Z,44.47
2023-04-05T23:30:49.898Z,44.14
2023-04-05T23:33:16.495Z,44.16
2023-04-05T23:35:43.175Z,44.15
2023-04-05T23:38:09.769Z,44.08
2023-04-05T23:40:36.373Z,43.59
2023-04-05T23:43:02.943Z,43.34
2023-04-05T23:45:29.544Z,42.94
2023-04-05T23:47:56.202Z,43.25
2023-04-05T23:50:22.766Z,42.88
2023-04-05T23:52:49.739Z,42.68
2023-04-05T23:55:16.843Z,42.29
2023-04-05T23:57:43.444Z,42.57
